Time;durP1;ratioP1;P1;durP2;ratioP2;P2;SDS_P1;SDS_P2;PMS_P1;PMS_P2;Temp;Humidity;BMP_temperature;BMP_pressure;BME280_temperature;BME280_humidity;BME280_pressure;Samples;Min_cycle;Max_cycle;Signal;HPM_P1;HPM_P2
2022/07/22 00:02:07;;;;;;;18.37;12.10;;;;;;;;;;5013714;28;20201;-81
2022/07/22 00:04:34;;;;;;;19.13;12.10;;;;;;;;;;5010801;28;20227;-80
2022/07/22 00:07:02;;;;;;;17.37;11.77;;;;;;;;;;5017911;28;20607;-80
2022/07/22 00:09:50;;;;;;;16.00;11.10;;;;;;;;;;5018872;28;20216;-79
2022/07/22 00:12:19;;;;;;;19.13;11.13;;;;;;;;;;5015629;28;20291;-80
2022/07/22 00:14:46;;;;;;;15.73;10.87;;;;;;;;;;5011922;28;20473;-79
2022/07/22 00:17:13;;;;;;;16.70;11.20;;;;;;;;;;5012466;28;20239;-80
2022/07/22 00:19:45;;;;;;;18.77;11.87;;;;;;;;;;5014190;28;20208;-80
2022/07/22 00:22:12;;;;;;;18.50;11.67;;;;;;;;;;5010212;28;20311;-81
2022/07/22 00:24:40;;;;;;;14.67;10.00;;;;;;;;;;5009101;28;20316;-81
2022/07/22 00:27:09;;;;;;;15.77;10.30;;;;;;;;;;5012702;28;20228;-80
2022/07/22 00:29:37;;;;;;;18.60;10.67;;;;;;;;;;5011801;28;20755;-80
2022/07/22 00:32:05;;;;;;;16.13;9.93;;;;;;;;;;5012596;28;20288;-80
2022/07/22 00:34:32;;;;;;;13.33;9.37;;;;;;;;;;5010124;28;20224;-81
2022/07/22 00:36:59;;;;;;;13.67;9.10;;;;;;;;;;5013132;28;20205;-81
2022/07/22 00:39:26;;;;;;;16.33;8.70;;;;;;;;;;5011778;28;20219;-81
2022/07/22 00:41:53;;;;;;;15.47;8.63;;;;;;;;;;5014676;28;20699;-81
2022/07/22 00:44:20;;;;;;;14.20;7.73;;;;;;;;;;5013483;28;20283;-81
2022/07/22 00:46:49;;;;;;;13.57;7.73;;;;;;;;;;5012580;28;20665;-81
2022/07/22 00:49:16;;;;;;;15.20;8.63;;;;;;;;;;5010311;28;20211;-81
2022/07/22 00:51:43;;;;;;;11.60;7.57;;;;;;;;;;5014401;28;20208;-81
2022/07/22 00:54:10;;;;;;;11.73;8.70;;;;;;;;;;5013537;28;20252;-81
2022/07/22 00:56:38;;;;;;;13.03;8.30;;;;;;;;;;5010639;28;20291;-81
2022/07/22 00:59:07;;;;;;;13.07;8.40;;;;;;;;;;5014114;28;20223;-80
2022/07/22 01:01:35;;;;;;;14.63;8.50;;;;;;;;;;5010268;28;20223;-80
2022/07/22 01:04:04;;;;;;;15.47;8.33;;;;;;;;;;5012847;28;20247;-81
2022/07/22 01:06:32;;;;;;;13.67;8.30;;;;;;;;;;5011202;28;20208;-81
2022/07/22 01:11:40;;;;;;;12.47;8.47;;;;;;;;;;5008504;28;20231;-80
2022/07/22 01:14:48;;;;;;;16.03;8.60;;;;;;;;;;5013248;28;20228;-81
2022/07/22 01:17:15;;;;;;;16.90;8.70;;;;;;;;;;5014219;28;20208;-80
2022/07/22 01:19:44;;;;;;;14.87;9.20;;;;;;;;;;5013557;28;20202;-80
2022/07/22 01:22:13;;;;;;;15.97;8.60;;;;;;;;;;5014154;28;20556;-80
2022/07/22 01:25:04;;;;;;;13.13;8.60;;;;;;;;;;5011012;28;20236;-80
2022/07/22 01:27:48;;;;;;;14.07;8.87;;;;;;;;;;5009010;28;20216;-80
2022/07/22 01:30:15;;;;;;;16.03;8.70;;;;;;;;;;5011064;28;20232;-79
2022/07/22 01:32:43;;;;;;;13.30;8.33;;;;;;;;;;5013796;28;20228;-79
2022/07/22 01:35:10;;;;;;;17.17;8.47;;;;;;;;;;5012199;28;20232;-80
2022/07/22 01:37:52;;;;;;;13.17;8.10;;;;;;;;;;5011253;28;20262;-80
2022/07/22 01:43:53;;;;;;;12.67;7.53;;;;;;;;;;4906038;29;20214;-80
2022/07/22 01:46:40;;;;;;;11.47;7.10;;;;;;;;;;4916538;29;20573;-80
2022/07/22 01:52:10;;;;;;;13.37;7.37;;;;;;;;;;4914655;29;20701;-80
2022/07/22 01:54:38;;;;;;;12.67;6.80;;;;;;;;;;4910132;29;20605;-79
2022/07/22 01:57:05;;;;;;;11.13;7.43;;;;;;;;;;4913576;29;20820;-80
2022/07/22 01:59:33;;;;;;;10.23;6.20;;;;;;;;;;4910773;29;20222;-80
2022/07/22 02:02:01;;;;;;;9.57;6.13;;;;;;;;;;5005308;28;20209;-80
2022/07/22 02:04:50;;;;;;;10.10;6.73;;;;;;;;;;5004688;28;20228;-80
2022/07/22 02:07:17;;;;;;;11.57;6.80;;;;;;;;;;5012048;28;20266;-80
2022/07/22 02:12:49;;;;;;;9.93;6.00;;;;;;;;;;4968698;28;20233;-81
2022/07/22 02:15:18;;;;;;;11.93;6.17;;;;;;;;;;4967788;28;20225;-81
2022/07/22 02:17:46;;;;;;;8.70;5.47;;;;;;;;;;5011417;28;20287;-80
2022/07/22 02:20:13;;;;;;;9.40;5.87;;;;;;;;;;5009816;28;20287;-81
2022/07/22 02:22:40;;;;;;;14.60;5.70;;;;;;;;;;5011271;28;20211;-80
2022/07/22 02:25:08;;;;;;;8.77;5.70;;;;;;;;;;5009756;28;20732;-80
2022/07/22 02:27:35;;;;;;;10.43;5.70;;;;;;;;;;5011530;28;20208;-81
2022/07/22 02:30:05;;;;;;;8.57;5.80;;;;;;;;;;5012347;28;20235;-81
2022/07/22 02:32:32;;;;;;;7.47;5.70;;;;;;;;;;5012549;28;20536;-81
2022/07/22 02:34:59;;;;;;;12.80;6.37;;;;;;;;;;5007953;28;20324;-80
2022/07/22 02:37:26;;;;;;;11.10;6.20;;;;;;;;;;5012867;28;20211;-80
2022/07/22 02:42:57;;;;;;;12.57;6.43;;;;;;;;;;5009771;28;20574;-80
2022/07/22 02:45:26;;;;;;;12.53;6.37;;;;;;;;;;5011843;28;20829;-81
2022/07/22 02:47:54;;;;;;;13.37;6.90;;;;;;;;;;5009557;28;20315;-80
2022/07/22 02:50:21;;;;;;;10.83;7.27;;;;;;;;;;5016871;28;20224;-81
2022/07/22 02:52:48;;;;;;;16.33;7.20;;;;;;;;;;5015775;28;20200;-80
2022/07/22 02:55:16;;;;;;;14.47;7.40;;;;;;;;;;5012931;28;20302;-80
2022/07/22 02:57:43;;;;;;;10.93;6.77;;;;;;;;;;5016387;28;20837;-80
2022/07/22 03:00:47;;;;;;;12.37;7.50;;;;;;;;;;5014643;28;20205;-80
2022/07/22 03:03:16;;;;;;;10.87;6.70;;;;;;;;;;5014243;28;20223;-80
2022/07/22 03:05:48;;;;;;;13.00;6.93;;;;;;;;;;5014761;28;20228;-80
2022/07/22 03:08:15;;;;;;;13.17;6.97;;;;;;;;;;5012993;28;20732;-80
2022/07/22 03:10:48;;;;;;;11.43;6.97;;;;;;;;;;5015632;28;20228;-80
2022/07/22 03:19:46;;;;;;;15.27;7.63;;;;;;;;;;5017318;28;20203;-80
2022/07/22 03:28:37;;;;;;;12.93;7.17;;;;;;;;;;4924898;28;20282;-80
2022/07/22 03:31:25;;;;;;;11.87;7.33;;;;;;;;;;5012328;28;20229;-81
2022/07/22 03:33:53;;;;;;;12.83;7.60;;;;;;;;;;5011950;28;20208;-80
2022/07/22 03:36:46;;;;;;;12.50;7.77;;;;;;;;;;5014112;28;20208;-80
2022/07/22 03:39:13;;;;;;;13.30;7.47;;;;;;;;;;5014861;28;20208;-81
2022/07/22 03:41:41;;;;;;;15.03;7.87;;;;;;;;;;5015595;28;20224;-81
2022/07/22 03:47:13;;;;;;;11.53;7.07;;;;;;;;;;5017028;28;20318;-81
2022/07/22 03:49:40;;;;;;;11.47;6.90;;;;;;;;;;5013857;28;20272;-80
2022/07/22 03:52:07;;;;;;;11.67;7.07;;;;;;;;;;5014209;28;20227;-81
2022/07/22 03:57:38;;;;;;;13.63;8.20;;;;;;;;;;5006400;28;20786;-81
2022/07/22 04:00:06;;;;;;;11.80;7.23;;;;;;;;;;5010331;28;20304;-81
2022/07/22 04:02:49;;;;;;;13.70;7.60;;;;;;;;;;5010770;28;20259;-79
2022/07/22 04:05:17;;;;;;;14.87;7.70;;;;;;;;;;5012376;28;20231;-79
2022/07/22 04:07:44;;;;;;;11.50;7.13;;;;;;;;;;5013345;28;20213;-79
2022/07/22 04:10:20;;;;;;;13.13;7.20;;;;;;;;;;5014375;28;20239;-80
2022/07/22 04:12:48;;;;;;;12.20;7.40;;;;;;;;;;5009719;28;20208;-80
2022/07/22 04:15:15;;;;;;;11.27;6.90;;;;;;;;;;5012160;28;20724;-79
2022/07/22 04:17:42;;;;;;;16.50;7.70;;;;;;;;;;5015067;28;20201;-80
2022/07/22 04:20:11;;;;;;;14.27;7.43;;;;;;;;;;5013384;28;20197;-80
2022/07/22 04:22:53;;;;;;;14.77;7.67;;;;;;;;;;5009583;28;20201;-80
2022/07/22 04:25:48;;;;;;;12.30;8.03;;;;;;;;;;5014706;28;20220;-81
2022/07/22 04:28:17;;;;;;;11.10;7.20;;;;;;;;;;5013577;28;20216;-81
2022/07/22 04:30:44;;;;;;;14.80;7.33;;;;;;;;;;5013559;28;20278;-80
2022/07/22 04:33:11;;;;;;;12.17;7.37;;;;;;;;;;5011303;28;20676;-81
2022/07/22 04:35:43;;;;;;;11.40;6.70;;;;;;;;;;5012461;28;20260;-81
2022/07/22 04:41:12;;;;;;;10.93;6.00;;;;;;;;;;4976785;28;20199;-81
2022/07/22 04:43:39;;;;;;;13.27;6.03;;;;;;;;;;5011418;28;20211;-79
2022/07/22 04:46:06;;;;;;;9.27;5.57;;;;;;;;;;5014055;28;20207;-80
2022/07/22 04:51:34;;;;;;;10.30;6.10;;;;;;;;;;5012262;28;20284;-80
2022/07/22 04:54:01;;;;;;;10.20;5.77;;;;;;;;;;5010518;28;20224;-80
2022/07/22 04:56:28;;;;;;;9.13;5.23;;;;;;;;;;5008250;28;20219;-81
2022/07/22 04:58:56;;;;;;;9.20;5.50;;;;;;;;;;5012356;28;20691;-80
2022/07/22 05:01:23;;;;;;;9.73;5.80;;;;;;;;;;5043500;23;20616;-79
2022/07/22 05:03:51;;;;;;;8.47;5.73;;;;;;;;;;5037220;28;20194;-78
2022/07/22 05:06:18;;;;;;;13.60;6.03;;;;;;;;;;5047682;28;20200;-78
2022/07/22 05:08:47;;;;;;;9.77;5.57;;;;;;;;;;5050381;28;20271;-79
2022/07/22 05:11:15;;;;;;;8.70;5.07;;;;;;;;;;5035645;28;20224;-81
2022/07/22 05:13:49;;;;;;;10.17;5.07;;;;;;;;;;5031273;28;20210;-81
2022/07/22 05:16:16;;;;;;;10.90;5.20;;;;;;;;;;5024783;28;20227;-81
2022/07/22 05:18:44;;;;;;;9.30;5.00;;;;;;;;;;5027895;28;20283;-81
2022/07/22 05:21:19;;;;;;;6.93;5.00;;;;;;;;;;5035161;28;20208;-81
2022/07/22 05:23:52;;;;;;;6.57;4.20;;;;;;;;;;5029715;28;20204;-82
2022/07/22 05:26:19;;;;;;;7.07;4.60;;;;;;;;;;5027502;28;20215;-81
2022/07/22 05:28:47;;;;;;;6.43;4.70;;;;;;;;;;5026948;28;20250;-82
2022/07/22 05:31:15;;;;;;;8.67;5.07;;;;;;;;;;5029101;28;20231;-82
2022/07/22 05:33:46;;;;;;;8.20;5.00;;;;;;;;;;5028821;28;20208;-82
2022/07/22 05:36:13;;;;;;;9.33;5.90;;;;;;;;;;5029604;28;20204;-81
2022/07/22 05:38:41;;;;;;;7.90;4.83;;;;;;;;;;5027227;28;20200;-80
2022/07/22 05:41:10;;;;;;;8.93;5.20;;;;;;;;;;5025418;28;20724;-79
2022/07/22 05:43:46;;;;;;;7.33;5.00;;;;;;;;;;5034400;28;20256;-80
2022/07/22 05:46:14;;;;;;;8.13;5.03;;;;;;;;;;5032711;28;20776;-81
2022/07/22 05:48:44;;;;;;;7.70;4.93;;;;;;;;;;5027020;28;20201;-78
2022/07/22 05:51:14;;;;;;;8.23;4.70;;;;;;;;;;5025496;28;20670;-78
2022/07/22 05:53:41;;;;;;;8.07;5.03;;;;;;;;;;5026165;28;20282;-78
2022/07/22 05:56:14;;;;;;;6.53;4.27;;;;;;;;;;5025447;28;20196;-79
2022/07/22 05:58:44;;;;;;;7.73;5.00;;;;;;;;;;5024163;28;20208;-78
2022/07/22 06:01:13;;;;;;;9.77;5.27;;;;;;;;;;5021327;28;20740;-79
2022/07/22 06:03:41;;;;;;;9.97;5.60;;;;;;;;;;5021858;28;20288;-78
2022/07/22 06:06:09;;;;;;;10.57;5.27;;;;;;;;;;5024801;28;20208;-79
2022/07/22 06:08:44;;;;;;;11.07;5.70;;;;;;;;;;5027000;28;20208;-79
2022/07/22 06:11:13;;;;;;;8.10;5.33;;;;;;;;;;5029405;28;20232;-80
2022/07/22 06:13:40;;;;;;;9.97;5.13;;;;;;;;;;5026919;28;20216;-80
2022/07/22 06:16:08;;;;;;;11.00;5.10;;;;;;;;;;5030281;28;20227;-81
2022/07/22 06:18:36;;;;;;;10.17;5.27;;;;;;;;;;5026558;28;20204;-80
2022/07/22 06:21:07;;;;;;;9.13;4.50;;;;;;;;;;5025991;28;20299;-82
2022/07/22 06:23:34;;;;;;;12.43;4.90;;;;;;;;;;5023790;28;20642;-81
2022/07/22 06:26:02;;;;;;;7.80;4.50;;;;;;;;;;5027840;28;20278;-81
2022/07/22 06:28:31;;;;;;;7.50;4.60;;;;;;;;;;5028325;28;20724;-81
2022/07/22 06:30:59;;;;;;;8.23;4.70;;;;;;;;;;5031595;28;20247;-79
2022/07/22 06:33:26;;;;;;;7.37;4.60;;;;;;;;;;5028614;28;20204;-80
2022/07/22 06:35:54;;;;;;;7.23;4.73;;;;;;;;;;5024453;28;20286;-80
2022/07/22 06:38:21;;;;;;;8.40;4.93;;;;;;;;;;5028967;28;20220;-82
2022/07/22 06:40:50;;;;;;;7.30;4.97;;;;;;;;;;5028089;28;20235;-81
2022/07/22 06:43:17;;;;;;;7.83;4.80;;;;;;;;;;5026155;28;20204;-82
2022/07/22 06:45:45;;;;;;;8.07;4.60;;;;;;;;;;5028217;28;20207;-81
2022/07/22 06:48:16;;;;;;;6.73;4.53;;;;;;;;;;5024395;28;20703;-82
2022/07/22 06:50:44;;;;;;;7.50;4.17;;;;;;;;;;5028016;28;20325;-82
2022/07/22 06:53:13;;;;;;;7.67;4.20;;;;;;;;;;5023345;28;20342;-83
2022/07/22 06:55:40;;;;;;;6.13;3.77;;;;;;;;;;5023141;28;20227;-82
2022/07/22 06:58:07;;;;;;;4.90;3.20;;;;;;;;;;5030154;28;20291;-82
2022/07/22 07:00:34;;;;;;;5.83;3.90;;;;;;;;;;5028809;28;20698;-81
2022/07/22 07:03:03;;;;;;;6.67;3.63;;;;;;;;;;5029747;28;20211;-82
2022/07/22 07:05:30;;;;;;;5.37;3.20;;;;;;;;;;5030375;28;20257;-81
2022/07/22 07:07:57;;;;;;;4.67;3.30;;;;;;;;;;5030428;28;20214;-82
2022/07/22 07:10:24;;;;;;;4.70;3.23;;;;;;;;;;5031684;28;20742;-82
2022/07/22 07:12:57;;;;;;;6.13;3.00;;;;;;;;;;5024448;28;20244;-82
2022/07/22 07:15:24;;;;;;;5.20;3.10;;;;;;;;;;5031004;28;20207;-82
2022/07/22 07:17:52;;;;;;;6.70;3.10;;;;;;;;;;5028376;28;20226;-83
2022/07/22 07:20:21;;;;;;;8.87;2.83;;;;;;;;;;5023890;28;20220;-82
2022/07/22 07:22:48;;;;;;;6.57;2.87;;;;;;;;;;5029152;28;20660;-82
2022/07/22 07:25:17;;;;;;;6.33;2.50;;;;;;;;;;5024025;28;20299;-82
2022/07/22 07:27:45;;;;;;;4.60;2.63;;;;;;;;;;5023482;28;20204;-81
2022/07/22 07:30:13;;;;;;;5.63;2.77;;;;;;;;;;5026222;28;20228;-82
2022/07/22 07:32:40;;;;;;;4.60;2.83;;;;;;;;;;5031002;28;20255;-82
2022/07/22 07:35:08;;;;;;;7.60;3.17;;;;;;;;;;5028728;28;20277;-82
2022/07/22 07:37:38;;;;;;;4.70;2.47;;;;;;;;;;5033776;28;20222;-80
2022/07/22 07:40:08;;;;;;;4.80;2.10;;;;;;;;;;5033798;28;20298;-80
2022/07/22 07:42:36;;;;;;;4.73;2.33;;;;;;;;;;5045686;28;20196;-80
2022/07/22 07:45:10;;;;;;;3.17;2.20;;;;;;;;;;5035220;28;20202;-77
2022/07/22 07:47:40;;;;;;;7.03;2.37;;;;;;;;;;5024497;28;20198;-79
2022/07/22 07:50:08;;;;;;;5.33;2.70;;;;;;;;;;5033168;28;20228;-79
2022/07/22 07:52:39;;;;;;;2.93;2.20;;;;;;;;;;5034942;28;20220;-81
2022/07/22 07:55:07;;;;;;;3.30;2.47;;;;;;;;;;5031475;28;20294;-80
2022/07/22 07:57:34;;;;;;;4.23;2.37;;;;;;;;;;5031143;28;20296;-79
2022/07/22 08:00:02;;;;;;;3.33;2.47;;;;;;;;;;5030886;28;20220;-80
2022/07/22 08:02:29;;;;;;;3.60;2.67;;;;;;;;;;5033394;28;20294;-80
2022/07/22 08:04:56;;;;;;;2.67;2.00;;;;;;;;;;5030551;28;20208;-81
2022/07/22 08:07:23;;;;;;;2.77;2.20;;;;;;;;;;5030671;28;20648;-81
2022/07/22 08:09:52;;;;;;;4.83;2.40;;;;;;;;;;5028967;28;20196;-80
2022/07/22 08:12:20;;;;;;;3.70;1.97;;;;;;;;;;5026735;28;20223;-81
2022/07/22 08:14:56;;;;;;;2.93;2.10;;;;;;;;;;5044285;28;20271;-82
2022/07/22 08:17:30;;;;;;;3.50;1.97;;;;;;;;;;5030786;28;20246;-80
2022/07/22 08:19:57;;;;;;;2.93;2.00;;;;;;;;;;5031514;28;20227;-80
2022/07/22 08:22:24;;;;;;;3.57;2.10;;;;;;;;;;5030010;28;20621;-79
2022/07/22 08:24:53;;;;;;;2.73;1.87;;;;;;;;;;5032895;28;20260;-80
2022/07/22 08:27:21;;;;;;;2.57;1.87;;;;;;;;;;5029158;28;20219;-80
2022/07/22 08:29:48;;;;;;;3.67;2.37;;;;;;;;;;5037892;28;20246;-81
2022/07/22 08:32:19;;;;;;;3.27;2.20;;;;;;;;;;5032986;28;20224;-80
2022/07/22 08:34:46;;;;;;;4.70;2.20;;;;;;;;;;5050751;28;20245;-79
2022/07/22 08:37:14;;;;;;;3.53;2.50;;;;;;;;;;5057390;28;20211;-78
2022/07/22 08:39:41;;;;;;;3.30;2.20;;;;;;;;;;5027927;28;20200;-80
2022/07/22 08:42:10;;;;;;;4.00;2.60;;;;;;;;;;5029182;28;20205;-81
2022/07/22 08:44:38;;;;;;;4.07;2.60;;;;;;;;;;5027269;28;20558;-80
2022/07/22 08:47:05;;;;;;;4.57;2.30;;;;;;;;;;5030794;28;20207;-80
2022/07/22 08:49:32;;;;;;;3.97;2.40;;;;;;;;;;5034097;28;20204;-79
2022/07/22 08:51:59;;;;;;;2.63;2.00;;;;;;;;;;5029869;28;20742;-81
2022/07/22 08:54:29;;;;;;;2.70;2.10;;;;;;;;;;5026334;28;20208;-81
2022/07/22 08:56:59;;;;;;;3.80;2.57;;;;;;;;;;5028719;28;20214;-81
2022/07/22 08:59:30;;;;;;;3.17;2.57;;;;;;;;;;5033148;28;20199;-82
2022/07/22 09:02:04;;;;;;;3.00;2.23;;;;;;;;;;5029910;28;20297;-81
2022/07/22 09:04:32;;;;;;;3.67;2.60;;;;;;;;;;5033782;28;20702;-81
2022/07/22 09:07:00;;;;;;;3.30;2.47;;;;;;;;;;5034480;28;20207;-80
2022/07/22 09:09:34;;;;;;;4.87;2.60;;;;;;;;;;5034991;28;20425;-79
2022/07/22 09:12:08;;;;;;;2.97;2.00;;;;;;;;;;5031372;28;20246;-81
2022/07/22 09:14:47;;;;;;;3.70;2.63;;;;;;;;;;5031956;28;20264;-81
2022/07/22 09:17:25;;;;;;;3.67;2.30;;;;;;;;;;5036201;28;20580;-80
2022/07/22 09:19:53;;;;;;;3.27;2.70;;;;;;;;;;5027346;28;20626;-79
2022/07/22 09:22:43;;;;;;;3.33;2.60;;;;;;;;;;5034848;28;20201;-82
2022/07/22 09:25:21;;;;;;;3.70;2.73;;;;;;;;;;5028902;28;20214;-79
2022/07/22 09:30:35;;;;;;;3.40;2.60;;;;;;;;;;4981435;28;20261;-80
2022/07/22 09:33:02;;;;;;;3.87;2.37;;;;;;;;;;5025589;28;20708;-81
2022/07/22 09:35:31;;;;;;;4.27;2.73;;;;;;;;;;5039485;28;20342;-81
2022/07/22 09:37:59;;;;;;;3.40;2.57;;;;;;;;;;5038537;28;20286;-81
2022/07/22 09:40:28;;;;;;;5.77;2.70;;;;;;;;;;5035400;28;20257;-81
2022/07/22 09:42:56;;;;;;;6.03;3.20;;;;;;;;;;5033467;28;20214;-80
2022/07/22 09:45:25;;;;;;;3.13;2.40;;;;;;;;;;5031574;28;20231;-80
2022/07/22 09:47:55;;;;;;;3.33;2.70;;;;;;;;;;5015618;28;20552;-81
2022/07/22 09:50:23;;;;;;;4.20;2.83;;;;;;;;;;5031530;28;20231;-83
2022/07/22 09:52:51;;;;;;;4.83;2.80;;;;;;;;;;5029906;28;20302;-81
2022/07/22 09:55:21;;;;;;;6.93;3.10;;;;;;;;;;5031190;28;20280;-83
2022/07/22 09:57:49;;;;;;;4.57;2.93;;;;;;;;;;5035705;28;20208;-81
2022/07/22 10:00:18;;;;;;;7.27;3.20;;;;;;;;;;5027071;28;20320;-80
2022/07/22 10:02:49;;;;;;;4.97;3.03;;;;;;;;;;5023055;28;20203;-81
2022/07/22 10:05:18;;;;;;;4.13;3.10;;;;;;;;;;5026377;28;20297;-81
2022/07/22 10:08:00;;;;;;;5.10;2.97;;;;;;;;;;5026556;28;20197;-80
2022/07/22 10:10:29;;;;;;;4.40;3.00;;;;;;;;;;5042983;28;20233;-81
2022/07/22 10:12:56;;;;;;;6.90;3.00;;;;;;;;;;5037060;28;20221;-80
2022/07/22 10:15:25;;;;;;;4.97;2.77;;;;;;;;;;5032492;28;20210;-82
2022/07/22 10:17:54;;;;;;;4.30;2.80;;;;;;;;;;5023360;28;20261;-82
2022/07/22 10:20:24;;;;;;;3.80;2.83;;;;;;;;;;5026732;28;20760;-79
2022/07/22 10:22:55;;;;;;;4.20;2.90;;;;;;;;;;5027482;28;20207;-80
2022/07/22 10:25:24;;;;;;;5.53;2.90;;;;;;;;;;5028299;28;20198;-83
2022/07/22 10:27:52;;;;;;;5.27;3.10;;;;;;;;;;5028618;28;20497;-82
2022/07/22 10:30:22;;;;;;;4.90;3.20;;;;;;;;;;5027747;28;20359;-81
2022/07/22 10:33:11;;;;;;;5.13;3.10;;;;;;;;;;5031101;28;20223;-81
2022/07/22 10:35:53;;;;;;;5.07;3.13;;;;;;;;;;5022219;28;20290;-80
2022/07/22 10:38:22;;;;;;;7.23;3.40;;;;;;;;;;5028352;28;20216;-82
2022/07/22 10:40:53;;;;;;;4.47;2.83;;;;;;;;;;5029542;28;20216;-82
2022/07/22 10:43:22;;;;;;;4.93;3.43;;;;;;;;;;5027653;28;20219;-81
2022/07/22 10:45:50;;;;;;;4.40;3.27;;;;;;;;;;5019516;28;20292;-82
2022/07/22 10:48:19;;;;;;;4.30;3.40;;;;;;;;;;5028297;28;20291;-80
2022/07/22 10:50:49;;;;;;;4.33;3.23;;;;;;;;;;5025249;28;20228;-80
2022/07/22 10:56:20;;;;;;;7.23;3.70;;;;;;;;;;5026687;28;20204;-80
2022/07/22 10:59:06;;;;;;;7.17;3.50;;;;;;;;;;5046700;28;20196;-80
2022/07/22 11:01:33;;;;;;;8.13;3.40;;;;;;;;;;4982819;28;1124990;-81
2022/07/22 11:04:18;;;;;;;6.43;3.47;;;;;;;;;;5036245;23;20234;-82
2022/07/22 11:06:48;;;;;;;4.93;3.33;;;;;;;;;;5049270;28;20202;-82
2022/07/22 11:09:15;;;;;;;8.07;3.63;;;;;;;;;;5058497;28;20208;-82
2022/07/22 11:11:44;;;;;;;6.47;3.70;;;;;;;;;;5056519;28;20199;-84
2022/07/22 11:14:15;;;;;;;5.17;3.80;;;;;;;;;;5044536;28;20256;-83
2022/07/22 11:16:42;;;;;;;4.73;3.60;;;;;;;;;;5038295;28;20249;-81
2022/07/22 11:19:10;;;;;;;6.77;3.80;;;;;;;;;;5039359;28;20222;-81
2022/07/22 11:21:37;;;;;;;6.20;4.07;;;;;;;;;;5041636;28;20210;-82
2022/07/22 11:24:07;;;;;;;7.53;3.27;;;;;;;;;;5032008;28;20222;-82
2022/07/22 11:26:37;;;;;;;5.43;3.67;;;;;;;;;;5030712;28;20277;-81
2022/07/22 11:29:04;;;;;;;5.60;3.77;;;;;;;;;;5033528;28;20293;-82
2022/07/22 11:31:32;;;;;;;5.27;3.33;;;;;;;;;;5033202;28;20204;-81
2022/07/22 11:34:09;;;;;;;6.07;3.73;;;;;;;;;;5030729;28;20228;-82
2022/07/22 11:36:38;;;;;;;5.17;3.63;;;;;;;;;;5032693;28;21136;-83
2022/07/22 11:39:07;;;;;;;4.90;3.83;;;;;;;;;;5034747;28;20212;-83
2022/07/22 11:41:35;;;;;;;4.73;4.00;;;;;;;;;;5035131;28;20207;-79
2022/07/22 11:44:02;;;;;;;5.30;3.50;;;;;;;;;;5040798;28;20215;-81
2022/07/22 11:46:36;;;;;;;4.63;3.60;;;;;;;;;;5037646;28;20216;-80
2022/07/22 11:49:03;;;;;;;5.50;3.60;;;;;;;;;;5035642;28;20645;-80
2022/07/22 11:51:31;;;;;;;6.03;3.80;;;;;;;;;;5037285;28;20200;-83
2022/07/22 11:53:59;;;;;;;7.17;3.83;;;;;;;;;;5042455;28;20247;-82
2022/07/22 11:56:28;;;;;;;5.70;3.60;;;;;;;;;;5033828;28;20310;-84
2022/07/22 11:58:55;;;;;;;5.67;3.70;;;;;;;;;;5034841;28;20233;-84
2022/07/22 12:01:23;;;;;;;5.90;3.33;;;;;;;;;;5027756;28;20216;-83
2022/07/22 12:03:51;;;;;;;6.30;3.73;;;;;;;;;;5036346;28;20259;-85
2022/07/22 12:06:19;;;;;;;5.37;3.83;;;;;;;;;;5033978;28;20242;-84
2022/07/22 12:08:46;;;;;;;6.27;3.40;;;;;;;;;;5038173;28;20904;-83
2022/07/22 12:11:15;;;;;;;4.77;3.67;;;;;;;;;;5035414;28;20219;-85
2022/07/22 12:13:44;;;;;;;7.23;3.63;;;;;;;;;;5034730;28;20641;-83
2022/07/22 12:16:19;;;;;;;6.70;3.40;;;;;;;;;;5036307;28;20253;-84
2022/07/22 12:18:51;;;;;;;6.00;3.47;;;;;;;;;;5040155;28;20257;-83
2022/07/22 12:21:19;;;;;;;5.63;3.77;;;;;;;;;;5032121;28;20207;-82
2022/07/22 12:23:51;;;;;;;5.43;3.40;;;;;;;;;;5041093;28;20227;-83
2022/07/22 12:26:18;;;;;;;5.50;3.63;;;;;;;;;;5040230;28;20678;-82
2022/07/22 12:28:47;;;;;;;5.13;3.80;;;;;;;;;;5038153;28;20230;-84
2022/07/22 12:31:14;;;;;;;5.03;3.63;;;;;;;;;;5036089;28;20242;-85
2022/07/22 12:33:50;;;;;;;6.40;3.60;;;;;;;;;;5032874;28;20268;-83
2022/07/22 12:36:18;;;;;;;4.67;3.37;;;;;;;;;;5035311;28;20235;-82
2022/07/22 12:38:46;;;;;;;5.63;3.63;;;;;;;;;;5033505;28;20196;-83
2022/07/22 12:41:23;;;;;;;6.50;3.70;;;;;;;;;;5035266;28;20263;-82
2022/07/22 12:43:52;;;;;;;7.30;3.93;;;;;;;;;;5032450;28;20242;-81
2022/07/22 12:46:20;;;;;;;8.63;3.60;;;;;;;;;;5032913;28;20261;-81
2022/07/22 12:48:51;;;;;;;7.83;4.00;;;;;;;;;;5035742;28;20208;-81
2022/07/22 12:51:19;;;;;;;5.83;3.73;;;;;;;;;;5032834;28;20206;-81
2022/07/22 12:53:46;;;;;;;7.53;4.13;;;;;;;;;;5034159;28;20238;-83
2022/07/22 12:56:16;;;;;;;5.70;3.93;;;;;;;;;;5031445;28;20210;-83
2022/07/22 12:58:43;;;;;;;6.33;3.87;;;;;;;;;;5036369;28;20241;-81
2022/07/22 13:01:12;;;;;;;6.93;3.87;;;;;;;;;;5036434;28;20208;-82
2022/07/22 13:03:39;;;;;;;6.00;3.43;;;;;;;;;;5034124;28;20288;-84
2022/07/22 13:06:06;;;;;;;5.77;3.80;;;;;;;;;;5034434;28;20282;-84
2022/07/22 13:08:34;;;;;;;7.00;3.80;;;;;;;;;;5036694;28;20207;-84
2022/07/22 13:11:01;;;;;;;5.63;4.10;;;;;;;;;;5036498;28;20203;-82
2022/07/22 13:13:29;;;;;;;5.17;3.70;;;;;;;;;;5039056;28;20668;-84
2022/07/22 13:15:56;;;;;;;4.90;3.63;;;;;;;;;;5042014;28;20217;-83
2022/07/22 13:18:25;;;;;;;6.87;3.97;;;;;;;;;;5042912;28;20223;-82
2022/07/22 13:20:52;;;;;;;5.03;3.70;;;;;;;;;;5033421;28;20215;-85
2022/07/22 13:23:20;;;;;;;8.33;4.03;;;;;;;;;;5036982;28;20255;-84
2022/07/22 13:25:47;;;;;;;7.17;4.00;;;;;;;;;;5038790;28;20198;-84
2022/07/22 13:28:14;;;;;;;5.87;3.70;;;;;;;;;;5038155;28;20236;-83
2022/07/22 13:30:41;;;;;;;5.57;3.87;;;;;;;;;;5037121;28;20203;-85
2022/07/22 13:33:08;;;;;;;6.97;3.73;;;;;;;;;;5031877;28;20201;-83
2022/07/22 13:35:40;;;;;;;6.60;3.87;;;;;;;;;;5042392;28;20239;-83
2022/07/22 13:38:07;;;;;;;4.97;3.70;;;;;;;;;;5034204;28;20258;-85
2022/07/22 13:40:34;;;;;;;5.47;3.77;;;;;;;;;;5038372;28;20334;-84
2022/07/22 13:43:01;;;;;;;4.93;3.77;;;;;;;;;;5034682;28;20201;-86
2022/07/22 13:45:28;;;;;;;5.47;4.00;;;;;;;;;;5047327;28;20193;-84
2022/07/22 13:47:56;;;;;;;7.77;4.10;;;;;;;;;;5048499;28;20206;-84
2022/07/22 13:50:23;;;;;;;6.37;4.20;;;;;;;;;;5041749;28;20203;-84
2022/07/22 13:52:52;;;;;;;5.07;4.00;;;;;;;;;;5037158;28;20262;-84
2022/07/22 13:55:19;;;;;;;7.83;4.23;;;;;;;;;;5038402;28;20250;-82
2022/07/22 13:57:47;;;;;;;5.93;3.93;;;;;;;;;;5039386;28;20235;-84
2022/07/22 14:00:14;;;;;;;5.97;3.73;;;;;;;;;;5036613;28;20242;-84
2022/07/22 14:02:44;;;;;;;9.50;4.40;;;;;;;;;;5043444;28;20206;-84
2022/07/22 14:05:11;;;;;;;5.13;3.83;;;;;;;;;;5033461;28;20239;-83
2022/07/22 14:07:38;;;;;;;5.93;4.20;;;;;;;;;;5028165;28;20235;-85
2022/07/22 14:10:08;;;;;;;6.10;3.90;;;;;;;;;;5047899;28;20237;-82
2022/07/22 14:12:35;;;;;;;6.90;3.93;;;;;;;;;;5045349;28;20203;-81
2022/07/22 14:15:02;;;;;;;6.50;4.10;;;;;;;;;;5046936;28;20235;-81
2022/07/22 14:17:29;;;;;;;7.73;4.27;;;;;;;;;;5049755;28;20792;-81
2022/07/22 14:19:56;;;;;;;5.37;3.87;;;;;;;;;;5045457;28;20273;-81
2022/07/22 14:22:24;;;;;;;6.70;4.17;;;;;;;;;;5047031;28;20218;-81
2022/07/22 14:24:51;;;;;;;4.93;3.60;;;;;;;;;;5050611;28;20231;-82
2022/07/22 14:27:19;;;;;;;6.37;4.00;;;;;;;;;;5052164;28;20192;-81
2022/07/22 14:29:47;;;;;;;7.37;4.00;;;;;;;;;;5052579;28;20243;-82
2022/07/22 14:32:14;;;;;;;6.03;4.07;;;;;;;;;;5053568;28;20230;-83
2022/07/22 14:34:41;;;;;;;6.80;4.00;;;;;;;;;;5041390;28;20254;-83
2022/07/22 14:37:09;;;;;;;6.77;4.30;;;;;;;;;;5052702;28;20180;-82
2022/07/22 14:39:36;;;;;;;5.03;3.70;;;;;;;;;;5053251;28;20743;-82
2022/07/22 14:42:04;;;;;;;9.33;4.80;;;;;;;;;;5051246;28;20196;-83
2022/07/22 14:44:32;;;;;;;7.17;4.20;;;;;;;;;;5025285;28;20247;-83
2022/07/22 14:46:59;;;;;;;6.20;4.20;;;;;;;;;;5039524;28;20199;-83
2022/07/22 14:49:27;;;;;;;5.83;3.90;;;;;;;;;;5038664;28;20215;-82
2022/07/22 14:51:54;;;;;;;6.83;4.20;;;;;;;;;;5035370;28;20271;-84
2022/07/22 14:54:21;;;;;;;9.97;3.93;;;;;;;;;;5039355;28;20228;-84
2022/07/22 14:56:48;;;;;;;7.27;4.37;;;;;;;;;;5034835;28;20706;-84
2022/07/22 14:59:15;;;;;;;7.30;4.57;;;;;;;;;;5033559;28;20254;-83
2022/07/22 15:01:44;;;;;;;5.33;4.00;;;;;;;;;;5030546;28;20200;-82
2022/07/22 15:04:11;;;;;;;5.70;4.00;;;;;;;;;;5034671;28;20711;-83
2022/07/22 15:06:38;;;;;;;7.70;4.40;;;;;;;;;;5033499;28;20223;-83
2022/07/22 15:09:06;;;;;;;5.97;4.50;;;;;;;;;;5033467;28;20228;-83
2022/07/22 15:11:33;;;;;;;7.93;4.40;;;;;;;;;;5028759;28;20594;-83
2022/07/22 15:14:00;;;;;;;5.10;4.23;;;;;;;;;;5033679;28;20709;-83
2022/07/22 15:16:27;;;;;;;6.73;4.27;;;;;;;;;;5032874;28;20287;-83
2022/07/22 15:18:56;;;;;;;7.73;4.37;;;;;;;;;;5030078;28;20656;-83
2022/07/22 15:21:23;;;;;;;5.20;4.10;;;;;;;;;;5030801;28;20283;-83
2022/07/22 15:23:50;;;;;;;9.33;4.27;;;;;;;;;;5030705;28;20223;-83
2022/07/22 15:26:17;;;;;;;7.53;4.90;;;;;;;;;;5023761;28;20208;-82
2022/07/22 15:28:47;;;;;;;7.50;4.30;;;;;;;;;;5035753;28;20207;-83
2022/07/22 15:31:14;;;;;;;6.93;4.30;;;;;;;;;;5030994;28;20688;-82
2022/07/22 15:33:42;;;;;;;7.07;4.50;;;;;;;;;;5029909;28;20254;-82
2022/07/22 15:36:11;;;;;;;6.80;4.47;;;;;;;;;;5029196;28;20230;-84
2022/07/22 15:38:39;;;;;;;7.10;4.50;;;;;;;;;;5030673;28;20285;-84